Home > Products > Valid Products > TAF

000
FTUS44 KSJT 270700 AAA
TAFABI
TAF AMD
KABI 270701Z 2707/2806 33015KT P6SM OVC015
     FM271000 VRB05KT P6SM SCT070 BKN120
     FM271200 25008KT P6SM BKN250
     FM280100 35014G20KT P6SM BKN020=



000
FTUS44 KSJT 270500
TAFSJT
TAF
KSJT 270523Z 2706/2806 35014G24KT P6SM VCSH SCT150
     FM270800 31011G17KT P6SM SCT150
     FM271200 23009KT P6SM BKN250
     FM272000 26013G20KT P6SM SCT250
     FM280300 34014G20KT P6SM BKN080=



000
FTUS44 KSJT 270500
TAFABI
TAF
KABI 270523Z 2706/2806 01010KT P6SM BKN150
     FM270700 VRB05KT P6SM SCT070 BKN120
     FM271200 25008KT P6SM BKN250
     FM280100 35014G20KT P6SM BKN020=



000
FTUS44 KSJT 270500
TAFJCT
TAF
KJCT 270523Z 2706/2806 29010KT P6SM VCSH SCT060 BKN100
     FM270800 VRB04KT P6SM SCT100 BKN200
     FM271600 26012KT P6SM BKN250=



000
FTUS44 KSJT 270500
TAFABI
TAF
KABI 270523Z 2706/2806 01010KT P6SM BKN150
     FM270700 VRB05KT P6SM SCT070 BKN120
     FM271200 25008KT P6SM BKN250
     FM280100 35014G20KT P6SM BKN020=



000
FTUS44 KSJT 270500
TAFJCT
TAF
KJCT 270523Z 2706/2806 29010KT P6SM VCSH SCT060 BKN100
     FM270800 VRB04KT P6SM SCT100 BKN200
     FM271600 26012KT P6SM BKN250=



000
FTUS44 KSJT 270500
TAFSJT
TAF
KSJT 270523Z 2706/2806 35014G24KT P6SM VCSH SCT150
     FM270800 31011G17KT P6SM SCT150
     FM271200 23009KT P6SM BKN250
     FM272000 26013G20KT P6SM SCT250
     FM280300 34014G20KT P6SM BKN080=



000
FTUS44 KSJT 270400 AAD
TAFJCT
TAF AMD
KJCT 270440Z 2705/2724 33015G25KT P6SM VCTS SCT060CB BKN120
     FM270600 29010KT P6SM VCSH SCT060 BKN100
     FM270800 VRB04KT P6SM SCT100 BKN200
     FM271600 26012KT P6SM BKN250=



000
FTUS44 KSJT 270300 AAE
TAFABI
TAF AMD
KABI 270357Z 2704/2724 01010KT P6SM BKN150
     FM270700 VRB05KT P6SM SCT070 BKN120
     FM271200 25008KT P6SM BKN250=



000
FTUS44 KSJT 270300 AAC
TAFJCT
TAF AMD
KJCT 270310Z 2703/2724 13010G16KT P6SM SCT040 OVC150
      TEMPO 2703/2704 VRB30G40KT 2SM +TSRA BKN040CB
     FM270400 29010KT P6SM SCT060 BKN120
     FM270600 VRB05KT P6SM VCSH SCT060 BKN100
     FM270800 VRB04KT P6SM SCT100 BKN200
     FM271600 26012KT P6SM BKN250=



000
FTUS44 KSJT 270300 AAB
TAFJCT
TAF AMD
KJCT 270304Z 2703/2724 13010G16KT P6SM FEW060 BKN250
      TEMPO 2703/2704 VRB30G40KT 2SM +TSRA BKN030CB
     FM270400 29010KT P6SM SCT060 BKN120
     FM270600 VRB05KT P6SM VCSH SCT060 BKN100
     FM270800 VRB04KT P6SM SCT100 BKN200
     FM271600 26012KT P6SM BKN250=



000
FTUS44 KSJT 270300 AAB
TAFJCT
TAF AMD
KJCT 270304Z 2703/2724 13010G16KT P6SM FEW060 BKN250
      TEMPO 2703/2704 VRB30G40KT 2SM +TSRA BKN030CB
     FM270400 29010KT P6SM SCT060 BKN120
     FM270600 VRB05KT P6SM VCSH SCT060 BKN100
     FM270800 VRB04KT P6SM SCT100 BKN200
     FM271600 26012KT P6SM BKN250=



000
FTUS44 KSJT 270200 AAD
TAFABI
TAF AMD
KABI 270259Z 2703/2724 07011G17KT P6SM SCT050 BKN100
     FM270700 VRB05KT P6SM SCT070 BKN120
     FM271200 25008KT P6SM BKN250=



000
FTUS44 KSJT 270200 AAD
TAFABI
TAF AMD
KABI 270259Z 2703/2724 07011G17KT P6SM SCT050 BKN100
     FM270700 VRB05KT P6SM SCT070 BKN120
     FM271200 25008KT P6SM BKN250=



000
FTUS44 KSJT 270200 AAD
TAFSJT
TAF AMD
KSJT 270258Z 2703/2724 31024G34KT P6SM BKN150
     FM270400 31011G17KT P6SM BKN150
     FM271200 23009KT P6SM BKN250=



000
FTUS44 KSJT 270200 AAD
TAFSJT
TAF AMD
KSJT 270258Z 2703/2724 31024G34KT P6SM BKN150
     FM270400 31011G17KT P6SM BKN150
     FM271200 23009KT P6SM BKN250=



000
FTUS44 KSJT 270200 AAC
TAFABI
TAF AMD
KABI 270224Z 2702/2724 04014G20KT P6SM SCT050 BKN100
     FM270700 VRB05KT P6SM SCT070 BKN120
     FM271200 25008KT P6SM BKN250=



000
FTUS44 KSJT 270200 AAC
TAFABI
TAF AMD
KABI 270224Z 2702/2724 04014G20KT P6SM SCT050 BKN100
     FM270700 VRB05KT P6SM SCT070 BKN120
     FM271200 25008KT P6SM BKN250=



000
FTUS44 KSJT 270100 AAB
TAFABI
TAF AMD
KABI 270155Z 2702/2724 06011KT P6SM SCT050 BKN100
     FM270700 VRB05KT P6SM SCT070 BKN120
     FM271200 25008KT P6SM BKN250=



000
FTUS44 KSJT 270100 AAB
TAFABI
TAF AMD
KABI 270155Z 2702/2724 06011KT P6SM SCT050 BKN100
     FM270700 VRB05KT P6SM SCT070 BKN120
     FM271200 25008KT P6SM BKN250=



000
FTUS44 KSJT 270100 AAA
TAFJCT
TAF AMD
KJCT 270153Z 2702/2724 16012KT P6SM FEW060 BKN250
     FM270330 29030G40KT 3SM +TSRA BKN030CB
     FM270430 29010KT P6SM SCT060 BKN120
     FM270600 VRB05KT P6SM VCSH SCT060 BKN100
     FM270800 VRB04KT P6SM SCT100 BKN200
     FM271600 26012KT P6SM BKN250=



000
FTUS44 KSJT 270100 AAC
TAFSJT
TAF AMD
KSJT 270123Z 2701/2724 29028G38KT 5SM TSRAGR BKN070CB
     FM270200 28017G25KT P6SM SCT070 BKN150
     FM270300 27012G19KT P6SM SCT100 BKN200
     FM270600 23011KT P6SM BKN200
     FM271200 23009KT P6SM BKN250=



000
FTUS44 KSJT 270100 AAB
TAFSJT
TAF AMD
KSJT 270121Z 2701/2724 29028G38KT 6SM -TSRA BKN070CB
     FM270200 28017G25KT P6SM SCT070 BKN150
     FM270300 27012G19KT P6SM SCT100 BKN200
     FM270600 23011KT P6SM BKN200
     FM271200 23009KT P6SM BKN250=



000
FTUS44 KSJT 270000 AAA
TAFSJT
TAF AMD
KSJT 270029Z 2700/2724 21015G25KT P6SM SCT100 BKN200
     FM270115 29025G35KT P6SM BKN090
     FM270300 27012G19KT P6SM SCT100 BKN200
     FM270600 23011KT P6SM BKN200
     FM271200 23009KT P6SM BKN250=



000
FTUS44 KSJT 270000 AAA
TAFABI
TAF AMD
KABI 270023Z 2700/2724 36020G30KT P6SM SCT060 BKN100
     FM270115 33010KT P6SM SCT070 BKN120
     FM270400 21014G22KT P6SM VCSH SCT060 BKN100
     FM270700 25006KT P6SM SCT070 BKN120
     FM271200 25008KT P6SM BKN250=



000
FTUS44 KSJT 270000 AAA
TAFABI
TAF AMD
KABI 270023Z 2700/2724 36020G30KT P6SM SCT060 BKN100
     FM270115 33010KT P6SM SCT070 BKN120
     FM270400 21014G22KT P6SM VCSH SCT060 BKN100
     FM270700 25006KT P6SM SCT070 BKN120
     FM271200 25008KT P6SM BKN250=



000
FTUS44 KSJT 262300 CCA
TAFJCT
TAF COR
KJCT 262340Z 2700/2724 17012G20KT P6SM BKN250
      TEMPO 2702/2706 P6SM -TSRA BKN040CB
     FM270600 VRB05KT P6SM VCSH SCT060 BKN100
     FM270800 VRB04KT P6SM SCT100 BKN200
     FM271600 26012KT P6SM BKN250=



000
FTUS44 KSJT 262300
TAFJCT
TAF
KJCT 262337Z 2700/2724 19012KT P6SM BKN250
      TEMPO 2700/2703 P6SM TS BKN050CB
     FM270300 20011KT P6SM SCT250
      TEMPO 2703/2706 P6SM TS BKN050CB
     FM270600 VRB04KT P6SM OVC100=



000
FTUS44 KSJT 262300
TAFSJT
TAF
KSJT 262337Z 2700/2724 23015G25KT P6SM SCT100 BKN200
     FM270600 23011KT P6SM BKN200
     FM271200 23009KT P6SM BKN250=



000
FTUS44 KSJT 262300
TAFABI
TAF
KABI 262337Z 2700/2724 14015KT P6SM VCTS SCT060CB BKN100
      TEMPO 2700/2702 VRB25G35KT 3SM TSRA BKN035CB
     FM270400 21014G22KT P6SM VCSH SCT060 BKN100
     FM270700 25006KT P6SM SCT070 BKN120
     FM271200 25008KT P6SM BKN250=



000
FTUS44 KSJT 262200 AAC
TAFABI
TAF AMD
KABI 262258Z 2623/2718 14015KT P6SM VCTS SCT060CB BKN100
      TEMPO 2700/2702 VRB25G35KT 3SM TSRA BKN035CB
     FM270400 21012G18KT P6SM SCT100
     FM271200 20008KT P6SM BKN250=



000
FTUS44 KSJT 262200 AAC
TAFABI
TAF AMD
KABI 262258Z 2623/2718 14015KT P6SM VCTS SCT060CB BKN100
      TEMPO 2700/2702 VRB25G35KT 3SM TSRA BKN035CB
     FM270400 21012G18KT P6SM SCT100
     FM271200 20008KT P6SM BKN250=



000
FTUS44 KSJT 262200 AAB
TAFABI
TAF AMD
KABI 262202Z 2622/2718 12015KT P6SM VCTS SCT060CB BKN100
      TEMPO 2622/2701 VRB25G35KT 3SM TSRA BKN035CB
     FM270300 21012G18KT P6SM SCT100
     FM271200 20008KT P6SM BKN250=



000
FTUS44 KSJT 262000 AAA
TAFABI
TAF AMD
KABI 262053Z 2621/2718 14018G26KT P6SM BKN110
      TEMPO 2621/2701 4SM -TSRA BKN050CB
     FM270300 21012G18KT P6SM SCT100
     FM271200 20008KT P6SM BKN250=



000
FTUS44 KSJT 262000 AAA
TAFABI
TAF AMD
KABI 262053Z 2621/2718 14018G26KT P6SM BKN110
      TEMPO 2621/2701 4SM -TSRA BKN050CB
     FM270300 21012G18KT P6SM SCT100
     FM271200 20008KT P6SM BKN250=



000
FTUS44 KSJT 261700
TAFABI
TAF
KABI 261723Z 2618/2718 21008KT P6SM BKN110
     FM262100 16018G26KT P6SM BKN110
      TEMPO 2621/2701 P6SM TS BKN050CB
     FM270300 21012G18KT P6SM SCT100
     FM271200 20008KT P6SM BKN250=



000
FTUS44 KSJT 261700
TAFSJT
TAF
KSJT 261723Z 2618/2718 21014G22KT P6SM SCT050
     FM270000 26009G20KT P6SM SCT100
     FM271200 23010KT P6SM BKN250
     FM271500 25017G23KT P6SM SKC=



000
FTUS44 KSJT 261700
TAFJCT
TAF
KJCT 261723Z 2618/2718 20012G18KT P6SM SKC
     FM270000 19012KT P6SM BKN250
      TEMPO 2700/2703 P6SM TS BKN050CB
     FM270300 20011KT P6SM SCT250
      TEMPO 2703/2706 P6SM TS BKN050CB
     FM270600 VRB04KT P6SM OVC100=



000
FTUS44 KSJT 261700
TAFJCT
TAF
KJCT 261723Z 2618/2718 20012G18KT P6SM SKC
     FM270000 19012KT P6SM BKN250
      TEMPO 2700/2703 P6SM TS BKN050CB
     FM270300 20011KT P6SM SCT250
      TEMPO 2703/2706 P6SM TS BKN050CB
     FM270600 VRB04KT P6SM OVC100=



000
FTUS44 KSJT 261700
TAFABI
TAF
KABI 261723Z 2618/2718 21008KT P6SM BKN110
     FM262100 16018G26KT P6SM BKN110
      TEMPO 2621/2701 P6SM TS BKN050CB
     FM270300 21012G18KT P6SM SCT100
     FM271200 20008KT P6SM BKN250=



000
FTUS44 KSJT 261700
TAFSJT
TAF
KSJT 261723Z 2618/2718 21014G22KT P6SM SCT050
     FM270000 26009G20KT P6SM SCT100
     FM271200 23010KT P6SM BKN250
     FM271500 25017G23KT P6SM SKC=



000
FTUS44 KSJT 261500 AAA
TAFABI
TAF AMD
KABI 261516Z 2615/2712 22012KT P6SM SKC
     FM261600 22012G18KT P6SM VCTS BKN050CB
     FM262200 19010KT P6SM SCT100=



000
FTUS44 KSJT 261400 AAA
TAFSJT
TAF AMD
KSJT 261449Z 2615/2712 20010G16KT P6SM BKN025
     FM261700 23012G18KT P6SM BKN250
     FM270000 21008KT P6SM SCT100=



000
FTUS44 KSJT 261200 AAA
TAFJCT
TAF AMD
KJCT 261224Z 2612/2712 VRB06KT P6SM BKN010
     FM261500 22010G16KT P6SM SCT030
     FM270000 19007KT P6SM VCSH SCT100=



000
FTUS44 KSJT 261100
TAFJCT
TAF
KJCT 261132Z 2612/2712 VRB06KT P6SM SKC
     FM261500 22010G16KT P6SM SKC
     FM270000 19007KT P6SM VCSH SCT100=



000
FTUS44 KSJT 261100
TAFABI
TAF
KABI 261132Z 2612/2712 VRB06KT P6SM SKC
     FM261500 22012G18KT P6SM SKC
     FM262000 20012G18KT P6SM VCTS BKN050CB
     FM262200 19010KT P6SM SCT100=



000
FTUS44 KSJT 261100
TAFABI
TAF
KABI 261132Z 2612/2712 VRB06KT P6SM SKC
     FM261500 22012G18KT P6SM SKC
     FM262000 20012G18KT P6SM VCTS BKN050CB
     FM262200 19010KT P6SM SCT100=



000
FTUS44 KSJT 261100
TAFSJT
TAF
KSJT 261132Z 2612/2712 21007KT P6SM SKC
     FM261500 21011G17KT P6SM SKC
     FM270000 21008KT P6SM SCT100=



000
FTUS44 KSJT 261100
TAFJCT
TAF
KJCT 261132Z 2612/2712 VRB06KT P6SM SKC
     FM261500 22010G16KT P6SM SKC
     FM270000 19007KT P6SM VCSH SCT100=



000
FTUS44 KSJT 261100
TAFSJT
TAF
KSJT 261132Z 2612/2712 21007KT P6SM SKC
     FM261500 21011G17KT P6SM SKC
     FM270000 21008KT P6SM SCT100=



000
FTUS44 KSJT 260500
TAFABI
TAF
KABI 260520Z 2606/2706 VRB06KT P6SM SKC
     FM261500 24012G18KT P6SM SKC=



000
FTUS44 KSJT 260500
TAFSJT
TAF
KSJT 260520Z 2606/2706 VRB06KT P6SM SKC
     FM261500 25011G17KT P6SM SKC=



000
FTUS44 KSJT 260500
TAFJCT
TAF
KJCT 260520Z 2606/2706 VRB06KT P6SM SKC
     FM261500 22010G16KT P6SM SKC=



000
FTUS44 KSJT 260500
TAFABI
TAF
KABI 260520Z 2606/2706 VRB06KT P6SM SKC
     FM261500 24012G18KT P6SM SKC=



000
FTUS44 KSJT 260500
TAFJCT
TAF
KJCT 260520Z 2606/2706 VRB06KT P6SM SKC
     FM261500 22010G16KT P6SM SKC=



000
FTUS44 KSJT 260500
TAFSJT
TAF
KSJT 260520Z 2606/2706 VRB06KT P6SM SKC
     FM261500 25011G17KT P6SM SKC=



000
FTUS44 KSJT 252300
TAFSJT
TAF
KSJT 252320Z 2600/2624 28014G22KT P6SM SKC
     FM260100 VRB06KT P6SM SKC
     FM261500 25011G17KT P6SM SKC=



000
FTUS44 KSJT 252300
TAFSJT
TAF
KSJT 252320Z 2600/2624 28014G22KT P6SM SKC
     FM260100 VRB06KT P6SM SKC
     FM261500 25011G17KT P6SM SKC=



000
FTUS44 KSJT 252300
TAFABI
TAF
KABI 252320Z 2600/2624 27011G17KT P6SM SKC
     FM260100 VRB06KT P6SM SKC
     FM261500 24012G18KT P6SM SKC=



000
FTUS44 KSJT 252300
TAFABI
TAF
KABI 252320Z 2600/2624 27011G17KT P6SM SKC
     FM260100 VRB06KT P6SM SKC
     FM261500 24012G18KT P6SM SKC=



000
FTUS44 KSJT 252300
TAFJCT
TAF
KJCT 252320Z 2600/2624 VRB06KT P6SM SKC
     FM261500 22010G16KT P6SM SKC=



000
FTUS44 KSJT 252300
TAFJCT
TAF
KJCT 252320Z 2600/2624 VRB06KT P6SM SKC
     FM261500 22010G16KT P6SM SKC=



000
FTUS44 KSJT 252300 AAA
TAFJCT
TAF AMD
KJCT 252304Z 2523/2618 VRB06KT P6SM SKC
     FM261600 21008G14KT P6SM SKC=



000
FTUS44 KSJT 252300 AAA
TAFJCT
TAF AMD
KJCT 252304Z 2523/2618 VRB06KT P6SM SKC
     FM261600 21008G14KT P6SM SKC=



000
FTUS44 KSJT 252300 AAA
TAFSJT
TAF AMD
KSJT 252303Z 2523/2618 28014G22KT P6SM SKC
     FM260000 23007KT P6SM SKC
     FM261600 25012G18KT P6SM SKC=



000
FTUS44 KSJT 252300 AAA
TAFSJT
TAF AMD
KSJT 252303Z 2523/2618 28014G22KT P6SM SKC
     FM260000 23007KT P6SM SKC
     FM261600 25012G18KT P6SM SKC=



000
FTUS44 KSJT 251700
TAFJCT
TAF
KJCT 251720Z 2518/2618 28008G16KT P6SM SKC
     FM260000 VRB03KT P6SM SKC
     FM261600 21008G14KT P6SM SKC=



000
FTUS44 KSJT 251700
TAFABI
TAF
KABI 251720Z 2518/2618 26012G18KT P6SM SKC
     FM260000 21008KT P6SM SKC=



000
FTUS44 KSJT 251700
TAFSJT
TAF
KSJT 251720Z 2518/2618 26012G18KT P6SM SKC
     FM260000 23007KT P6SM SKC
     FM261600 25012G18KT P6SM SKC=



000
FTUS44 KSJT 251300 AAA
TAFJCT
TAF AMD
KJCT 251304Z 2513/2612 VRB03KT P6SM SKC
     FM251500 25010KT P6SM SKC=



000
FTUS44 KSJT 251300 AAA
TAFJCT
TAF AMD
KJCT 251304Z 2513/2612 VRB03KT P6SM SKC
     FM251500 25010KT P6SM SKC=



000
FTUS44 KSJT 251100
TAFSJT
TAF
KSJT 251125Z 2512/2612 VRB06KT P6SM SKC
     FM251500 25013KT P6SM SKC=



000
FTUS44 KSJT 251100
TAFABI
TAF
KABI 251125Z 2512/2612 VRB06KT P6SM SKC
     FM251500 26014KT P6SM FEW250=



000
FTUS44 KSJT 251100
TAFJCT
TAF
KJCT 251125Z 2512/2612 VRB03KT 2SM BR BKN003
      TEMPO 2512/2514 1SM BR BKN001
     FM251500 25010KT P6SM SKC=



000
FTUS44 KSJT 251100
TAFJCT
TAF
KJCT 251125Z 2512/2612 VRB03KT 2SM BR BKN003
      TEMPO 2512/2514 1SM BR BKN001
     FM251500 25010KT P6SM SKC=



000
FTUS44 KSJT 251100
TAFSJT
TAF
KSJT 251125Z 2512/2612 VRB06KT P6SM SKC
     FM251500 25013KT P6SM SKC=



000
FTUS44 KSJT 251100
TAFABI
TAF
KABI 251125Z 2512/2612 VRB06KT P6SM SKC
     FM251500 26014KT P6SM FEW250=



000
FTUS44 KSJT 250800 AAA
TAFJCT
TAF AMD
KJCT 250836Z 2509/2606 VRB06KT 4SM BR BKN005
      TEMPO 2509/2513 2SM BR
     FM251500 25010KT P6SM SKC=



000
FTUS44 KSJT 250500
TAFJCT
TAF
KJCT 250520Z 2506/2606 VRB06KT P6SM SKC
     FM251500 25010KT P6SM SKC=



000
FTUS44 KSJT 250500
TAFABI
TAF
KABI 250520Z 2506/2606 VRB06KT P6SM SKC
     FM251500 26014KT P6SM FEW250=



000
FTUS44 KSJT 250500
TAFSJT
TAF
KSJT 250520Z 2506/2606 VRB06KT P6SM SKC
     FM251500 25013KT P6SM SKC=



000
FTUS44 KSJT 242300 RRA
TAFABI
TAF
KABI 242342Z 2500/2524 20010KT P6SM SCT150
     FM251500 26015G22KT P6SM FEW250=



000
FTUS44 KSJT 242300 RRA
TAFSJT
TAF
KSJT 242342Z 2500/2524 27010KT P6SM FEW090
     FM251600 26015G22KT P6SM SKC=



000
FTUS44 KSJT 242300 RRA
TAFJCT
TAF
KJCT 242342Z 2500/2524 20011KT P6SM BKN150
     FM251600 25005KT P6SM SKC=



000
FTUS44 KSJT 242300 RRA
TAFABI
TAF
KABI 242342Z 2500/2524 20010KT P6SM SCT150
     FM251500 26015G22KT P6SM FEW250=



000
FTUS44 KSJT 242300 RRA
TAFSJT
TAF
KSJT 242342Z 2500/2524 27010KT P6SM FEW090
     FM251600 26015G22KT P6SM SKC=



000
FTUS44 KSJT 242300 RRA
TAFJCT
TAF
KJCT 242342Z 2500/2524 20011KT P6SM BKN150
     FM251600 25005KT P6SM SKC=



000
FTUS44 KSJT 242300 AAA
TAFJCT
TAF AMD
KJCT 242334Z 2500/2518 20014G20KT P6SM SCT025 OVC150
      TEMPO 2500/2502 3SM TSRA BKN025CB OVC150
     FM250200 25005KT P6SM SCT250=



000
FTUS44 KSJT 242300 AAA
TAFJCT
TAF AMD
KJCT 242328Z 2423/2518 16007KT P6SM SCT025 OVC150
      TEMPO 2500/2502 3SM TSRA BKN025CB OVC150
     FM250200 25005KT P6SM SCT250=



000
FTUS44 KSJT 242300 AAA
TAFJCT
TAF AMD
KJCT 242328Z 2423/2518 16007KT P6SM SCT025 OVC150
      TEMPO 2500/2502 3SM TSRA BKN025CB OVC150
     FM250200 25005KT P6SM SCT250=



000
FTUS44 KSJT 242100 AAD
TAFSJT
TAF AMD
KSJT 242151Z 2422/2518 27011KT P6SM -RA VCTS FEW050CB BKN100
     FM242300 27011KT P6SM SCT050 SCT120
     FM250300 26011KT P6SM FEW100 SCT250
     FM251600 26015G22KT P6SM SKC=



000
FTUS44 KSJT 242100 AAC
TAFSJT
TAF AMD
KSJT 242131Z 2422/2518 27015G33KT P6SM VCTS FEW050CB BKN100
     FM242300 27012KT P6SM SCT050 SCT120
     FM250300 26011KT P6SM FEW100 SCT250
     FM251600 26015G22KT P6SM SKC=



000
FTUS44 KSJT 242100 AAC
TAFSJT
TAF AMD
KSJT 242131Z 2422/2518 27015G33KT P6SM VCTS FEW050CB BKN100
     FM242300 27012KT P6SM SCT050 SCT120
     FM250300 26011KT P6SM FEW100 SCT250
     FM251600 26015G22KT P6SM SKC=



000
FTUS44 KSJT 242100 AAB
TAFJCT
TAF AMD
KJCT 242125Z 2421/2518 16007KT P6SM BKN025 OVC035
      TEMPO 2423/2501 1SM +TSRAGR BKN025CB
     FM250200 25005KT P6SM SCT250=



000
FTUS44 KSJT 242100 AAB
TAFSJT
TAF AMD
KSJT 242109Z 2421/2518 VRB40G50KT 1SM +TSRAGR SCT025 OVC040CB
     FM242315 27012KT P6SM VCTS SCT025 OVC040CB
     FM250300 26011KT P6SM FEW100 SCT250
     FM251600 26015G22KT P6SM SKC=



000
FTUS44 KSJT 242000 AAA
TAFJCT
TAF AMD
KJCT 242016Z 2420/2518 16007KT P6SM OVC018
     FM242200 22011KT P6SM VCTS SCT020 BKN050CB
     FM250200 25005KT P6SM SCT250=



000
FTUS44 KSJT 242000 AAA
TAFSJT
TAF AMD
KSJT 242015Z 2420/2518 19016G26KT P6SM BKN040 BKN130
     FM242100 21014G22KT P6SM VCTS SCT060CB BKN100
     FM250300 26011KT P6SM FEW100 SCT250
     FM251600 26015G22KT P6SM SKC=



000
FTUS44 KSJT 241700 RRA
TAFJCT
TAF
KJCT 241741Z 2418/2518 16007KT P6SM SCT050 BKN100
      TEMPO 2418/2420 BKN015
     FM242000 22011KT P6SM VCTS BKN050CB
     FM250200 25005KT P6SM SCT250=



000
FTUS44 KSJT 241700 RRA
TAFABI
TAF
KABI 241741Z 2418/2518 20010KT P6SM VCTS BKN070CB BKN130
     FM242300 24010KT P6SM SCT060 SCT250
     FM250500 27010KT P6SM SCT250
     FM251500 26015G22KT P6SM FEW250=



000
FTUS44 KSJT 241700 RRA
TAFSJT
TAF
KSJT 241741Z 2418/2518 15009KT P6SM BKN035 BKN130
     FM242000 21011KT P6SM VCTS SCT060CB BKN100
     FM250300 26011KT P6SM FEW100 SCT250
     FM251600 26015G22KT P6SM SKC=



000
FTUS44 KSJT 241400 AAB
TAFABI
TAF AMD
KABI 241454Z 2415/2512 20010KT P6SM VCTS SCT070CB BKN130
      TEMPO 2415/2418 3SM TSRA BR BKN035CB
     FM242100 24010KT P6SM BKN060
     FM250000 27010KT P6SM SCT250=



000
FTUS44 KSJT 241400 AAB
TAFABI
TAF AMD
KABI 241454Z 2415/2512 20010KT P6SM VCTS SCT070CB BKN130
      TEMPO 2415/2418 3SM TSRA BR BKN035CB
     FM242100 24010KT P6SM BKN060
     FM250000 27010KT P6SM SCT250=



000
FTUS44 KSJT 241200 AAA
TAFABI
TAF AMD
KABI 241239Z 2413/2512 20010KT P6SM VCTS SCT070CB BKN130
     FM242100 24010KT P6SM BKN060
     FM250000 27010KT P6SM SCT250=



000
FTUS44 KSJT 241100
TAFABI
TAF
KABI 241129Z 2412/2512 20010KT P6SM SCT070 BKN130
     FM241500 21012KT P6SM VCTS SCT060CB BKN100
     FM242100 24010KT P6SM BKN060
     FM250000 27010KT P6SM SCT250=



000
FTUS44 KSJT 241100
TAFABI
TAF
KABI 241129Z 2412/2512 20010KT P6SM SCT070 BKN130
     FM241500 21012KT P6SM VCTS SCT060CB BKN100
     FM242100 24010KT P6SM BKN060
     FM250000 27010KT P6SM SCT250=



000
FTUS44 KSJT 241100
TAFJCT
TAF
KJCT 241129Z 2412/2512 16007KT P6SM SCT050 BKN100
     FM241800 22012KT P6SM VCTS BKN050CB
     FM250100 25009KT P6SM SCT250=



000
FTUS44 KSJT 241100
TAFSJT
TAF
KSJT 241129Z 2412/2512 18009KT P6SM FEW050 BKN130
     FM241600 21010KT P6SM VCTS SCT060CB BKN100
     FM242000 27015KT P6SM SCT070 BKN250=



000
FTUS44 KSJT 241100
TAFSJT
TAF
KSJT 241129Z 2412/2512 18009KT P6SM FEW050 BKN130
     FM241600 21010KT P6SM VCTS SCT060CB BKN100
     FM242000 27015KT P6SM SCT070 BKN250=



000
FTUS44 KSJT 241100
TAFJCT
TAF
KJCT 241129Z 2412/2512 16007KT P6SM SCT050 BKN100
     FM241800 22012KT P6SM VCTS BKN050CB
     FM250100 25009KT P6SM SCT250=



    US Dept of Commerce
    National Oceanic and Atmospheric Administration
    National Weather Service
    1325 East West Highway
    Silver Spring, MD 20910
    Page Author: NWS Internet Services Team
Disclaimer
Information Quality
Credits
Glossary
Privacy Policy
Freedom of Information Act (FOIA)
About Us
Career Opportunities